sensor_id;sensor_type;location;lat;lon;timestamp;P1;durP1;ratioP1;P2;durP2;ratioP2
28613;SDS011;15806;53.548;9.964;2024-01-16T00:00:36;8.23;;;1.80;;
28613;SDS011;15806;53.548;9.964;2024-01-16T00:02:17;6.97;;;2.53;;
28613;SDS011;15806;53.548;9.964;2024-01-16T00:03:57;9.47;;;2.03;;
28613;SDS011;15806;53.548;9.964;2024-01-16T00:05:38;9.17;;;2.77;;
28613;SDS011;15806;53.548;9.964;2024-01-16T00:07:18;6.20;;;2.53;;
28613;SDS011;15806;53.548;9.964;2024-01-16T00:08:58;4.60;;;2.03;;
28613;SDS011;15806;53.548;9.964;2024-01-16T00:10:39;5.97;;;2.10;;
28613;SDS011;15806;53.548;9.964;2024-01-16T00:12:20;4.80;;;2.00;;
28613;SDS011;15806;53.548;9.964;2024-01-16T00:14:00;10.48;;;3.33;;
28613;SDS011;15806;53.548;9.964;2024-01-16T00:15:41;5.43;;;2.07;;
28613;SDS011;15806;53.548;9.964;2024-01-16T00:17:21;6.97;;;3.40;;
28613;SDS011;15806;53.548;9.964;2024-01-16T00:19:02;11.77;;;3.47;;
28613;SDS011;15806;53.548;9.964;2024-01-16T00:20:42;6.00;;;3.13;;
28613;SDS011;15806;53.548;9.964;2024-01-16T00:22:23;9.40;;;3.43;;
28613;SDS011;15806;53.548;9.964;2024-01-16T00:24:04;18.50;;;3.37;;
28613;SDS011;15806;53.548;9.964;2024-01-16T00:25:44;6.47;;;3.25;;
28613;SDS011;15806;53.548;9.964;2024-01-16T00:27:25;10.03;;;3.20;;
28613;SDS011;15806;53.548;9.964;2024-01-16T00:29:05;8.53;;;3.37;;
28613;SDS011;15806;53.548;9.964;2024-01-16T00:30:46;6.40;;;3.20;;
28613;SDS011;15806;53.548;9.964;2024-01-16T00:32:26;7.80;;;3.13;;
28613;SDS011;15806;53.548;9.964;2024-01-16T00:34:07;11.33;;;3.80;;
28613;SDS011;15806;53.548;9.964;2024-01-16T00:35:47;4.57;;;2.73;;
28613;SDS011;15806;53.548;9.964;2024-01-16T00:37:28;7.10;;;4.00;;
28613;SDS011;15806;53.548;9.964;2024-01-16T00:39:08;11.37;;;3.77;;
28613;SDS011;15806;53.548;9.964;2024-01-16T00:40:49;6.30;;;3.10;;
28613;SDS011;15806;53.548;9.964;2024-01-16T00:42:30;5.90;;;3.40;;
28613;SDS011;15806;53.548;9.964;2024-01-16T00:44:11;8.10;;;3.38;;
28613;SDS011;15806;53.548;9.964;2024-01-16T00:45:51;8.07;;;4.03;;
28613;SDS011;15806;53.548;9.964;2024-01-16T00:47:32;12.90;;;3.97;;
28613;SDS011;15806;53.548;9.964;2024-01-16T00:49:12;7.57;;;3.07;;
28613;SDS011;15806;53.548;9.964;2024-01-16T00:50:53;8.47;;;4.00;;
28613;SDS011;15806;53.548;9.964;2024-01-16T00:52:34;9.05;;;2.92;;
28613;SDS011;15806;53.548;9.964;2024-01-16T00:54:14;7.03;;;3.63;;
28613;SDS011;15806;53.548;9.964;2024-01-16T00:55:55;7.83;;;3.13;;
28613;SDS011;15806;53.548;9.964;2024-01-16T00:57:35;11.27;;;3.87;;
28613;SDS011;15806;53.548;9.964;2024-01-16T00:59:16;7.90;;;3.47;;
28613;SDS011;15806;53.548;9.964;2024-01-16T01:00:56;9.73;;;3.13;;
28613;SDS011;15806;53.548;9.964;2024-01-16T01:02:37;7.30;;;3.00;;
28613;SDS011;15806;53.548;9.964;2024-01-16T01:04:17;10.17;;;2.93;;
28613;SDS011;15806;53.548;9.964;2024-01-16T01:05:58;6.17;;;3.17;;
28613;SDS011;15806;53.548;9.964;2024-01-16T01:07:40;7.45;;;3.58;;
28613;SDS011;15806;53.548;9.964;2024-01-16T01:09:21;6.43;;;2.97;;
28613;SDS011;15806;53.548;9.964;2024-01-16T01:11:01;11.03;;;3.73;;
28613;SDS011;15806;53.548;9.964;2024-01-16T01:12:42;5.57;;;2.20;;
28613;SDS011;15806;53.548;9.964;2024-01-16T01:14:22;6.67;;;3.30;;
28613;SDS011;15806;53.548;9.964;2024-01-16T01:16:03;7.03;;;2.73;;
28613;SDS011;15806;53.548;9.964;2024-01-16T01:17:43;5.22;;;2.47;;
28613;SDS011;15806;53.548;9.964;2024-01-16T01:19:24;9.57;;;3.23;;
28613;SDS011;15806;53.548;9.964;2024-01-16T01:21:05;6.63;;;2.33;;
28613;SDS011;15806;53.548;9.964;2024-01-16T01:22:45;7.23;;;2.90;;
28613;SDS011;15806;53.548;9.964;2024-01-16T01:24:26;9.43;;;2.20;;
28613;SDS011;15806;53.548;9.964;2024-01-16T01:26:06;6.20;;;2.13;;
28613;SDS011;15806;53.548;9.964;2024-01-16T01:27:47;6.80;;;2.43;;
28613;SDS011;15806;53.548;9.964;2024-01-16T01:29:27;9.37;;;2.27;;
28613;SDS011;15806;53.548;9.964;2024-01-16T01:31:08;7.73;;;2.70;;
28613;SDS011;15806;53.548;9.964;2024-01-16T01:32:50;3.72;;;1.98;;
28613;SDS011;15806;53.548;9.964;2024-01-16T01:34:30;4.13;;;2.10;;
28613;SDS011;15806;53.548;9.964;2024-01-16T01:36:11;4.37;;;1.83;;
28613;SDS011;15806;53.548;9.964;2024-01-16T01:37:51;4.77;;;2.40;;
28613;SDS011;15806;53.548;9.964;2024-01-16T01:39:32;5.37;;;2.20;;
28613;SDS011;15806;53.548;9.964;2024-01-16T01:41:12;5.73;;;2.40;;
28613;SDS011;15806;53.548;9.964;2024-01-16T01:42:53;7.87;;;2.60;;
28613;SDS011;15806;53.548;9.964;2024-01-16T01:44:33;7.67;;;2.53;;
28613;SDS011;15806;53.548;9.964;2024-01-16T01:46:20;5.70;;;2.13;;
28613;SDS011;15806;53.548;9.964;2024-01-16T01:48:01;7.30;;;2.28;;
28613;SDS011;15806;53.548;9.964;2024-01-16T01:49:41;8.60;;;2.90;;
28613;SDS011;15806;53.548;9.964;2024-01-16T01:51:22;6.07;;;2.30;;
28613;SDS011;15806;53.548;9.964;2024-01-16T01:53:03;7.55;;;2.85;;
28613;SDS011;15806;53.548;9.964;2024-01-16T01:54:44;7.03;;;3.00;;
28613;SDS011;15806;53.548;9.964;2024-01-16T01:56:25;6.57;;;2.33;;
28613;SDS011;15806;53.548;9.964;2024-01-16T01:58:07;5.05;;;2.67;;
28613;SDS011;15806;53.548;9.964;2024-01-16T01:59:48;8.35;;;2.88;;
28613;SDS011;15806;53.548;9.964;2024-01-16T02:01:29;5.47;;;2.30;;
28613;SDS011;15806;53.548;9.964;2024-01-16T02:03:11;4.95;;;2.33;;
28613;SDS011;15806;53.548;9.964;2024-01-16T02:04:51;5.60;;;2.00;;
28613;SDS011;15806;53.548;9.964;2024-01-16T02:06:32;7.17;;;2.47;;
28613;SDS011;15806;53.548;9.964;2024-01-16T02:08:13;5.82;;;2.63;;
28613;SDS011;15806;53.548;9.964;2024-01-16T02:09:53;7.47;;;3.80;;
28613;SDS011;15806;53.548;9.964;2024-01-16T02:11:34;10.03;;;3.50;;
28613;SDS011;15806;53.548;9.964;2024-01-16T02:13:14;7.93;;;2.60;;
28613;SDS011;15806;53.548;9.964;2024-01-16T02:14:55;8.87;;;3.00;;
28613;SDS011;15806;53.548;9.964;2024-01-16T02:16:36;6.17;;;2.80;;
28613;SDS011;15806;53.548;9.964;2024-01-16T02:18:17;8.55;;;3.25;;
28613;SDS011;15806;53.548;9.964;2024-01-16T02:19:58;5.37;;;2.70;;
28613;SDS011;15806;53.548;9.964;2024-01-16T02:21:39;7.53;;;2.57;;
28613;SDS011;15806;53.548;9.964;2024-01-16T02:23:26;8.98;;;3.95;;
28613;SDS011;15806;53.548;9.964;2024-01-16T02:25:07;6.70;;;3.42;;
28613;SDS011;15806;53.548;9.964;2024-01-16T02:26:48;10.57;;;3.57;;
28613;SDS011;15806;53.548;9.964;2024-01-16T02:28:31;12.40;;;3.53;;
28613;SDS011;15806;53.548;9.964;2024-01-16T02:33:55;8.85;;;4.28;;
28613;SDS011;15806;53.548;9.964;2024-01-16T02:35:36;12.97;;;5.07;;
28613;SDS011;15806;53.548;9.964;2024-01-16T02:37:16;14.60;;;4.53;;
28613;SDS011;15806;53.548;9.964;2024-01-16T02:38:57;12.47;;;4.73;;
28613;SDS011;15806;53.548;9.964;2024-01-16T02:40:37;14.10;;;5.50;;
28613;SDS011;15806;53.548;9.964;2024-01-16T02:42:18;12.20;;;4.63;;
28613;SDS011;15806;53.548;9.964;2024-01-16T02:43:58;17.87;;;6.17;;
28613;SDS011;15806;53.548;9.964;2024-01-16T02:45:39;10.07;;;4.70;;
28613;SDS011;15806;53.548;9.964;2024-01-16T02:47:19;13.83;;;5.63;;
28613;SDS011;15806;53.548;9.964;2024-01-16T02:49:00;14.67;;;5.37;;
28613;SDS011;15806;53.548;9.964;2024-01-16T02:50:40;14.63;;;5.50;;
28613;SDS011;15806;53.548;9.964;2024-01-16T02:52:21;10.37;;;3.77;;
28613;SDS011;15806;53.548;9.964;2024-01-16T02:54:01;14.10;;;5.37;;
28613;SDS011;15806;53.548;9.964;2024-01-16T02:55:42;11.43;;;5.23;;
28613;SDS011;15806;53.548;9.964;2024-01-16T02:57:22;10.93;;;4.73;;
28613;SDS011;15806;53.548;9.964;2024-01-16T02:59:03;11.33;;;4.13;;
28613;SDS011;15806;53.548;9.964;2024-01-16T03:00:43;12.20;;;5.67;;
28613;SDS011;15806;53.548;9.964;2024-01-16T03:02:24;11.53;;;4.30;;
28613;SDS011;15806;53.548;9.964;2024-01-16T03:04:04;11.50;;;4.27;;
28613;SDS011;15806;53.548;9.964;2024-01-16T03:05:45;16.73;;;5.53;;
28613;SDS011;15806;53.548;9.964;2024-01-16T03:07:26;11.60;;;4.22;;
28613;SDS011;15806;53.548;9.964;2024-01-16T03:09:06;13.17;;;5.37;;
28613;SDS011;15806;53.548;9.964;2024-01-16T03:10:47;10.67;;;4.80;;
28613;SDS011;15806;53.548;9.964;2024-01-16T03:12:27;17.00;;;4.90;;
28613;SDS011;15806;53.548;9.964;2024-01-16T03:14:08;13.57;;;5.97;;
28613;SDS011;15806;53.548;9.964;2024-01-16T03:15:48;11.77;;;5.20;;
28613;SDS011;15806;53.548;9.964;2024-01-16T03:17:29;10.37;;;4.20;;
28613;SDS011;15806;53.548;9.964;2024-01-16T03:19:09;10.27;;;4.00;;
28613;SDS011;15806;53.548;9.964;2024-01-16T03:20:50;10.60;;;4.13;;
28613;SDS011;15806;53.548;9.964;2024-01-16T03:22:30;12.97;;;4.20;;
28613;SDS011;15806;53.548;9.964;2024-01-16T03:24:11;11.70;;;4.13;;
28613;SDS011;15806;53.548;9.964;2024-01-16T03:25:51;12.33;;;3.90;;
28613;SDS011;15806;53.548;9.964;2024-01-16T03:27:32;11.67;;;4.67;;
28613;SDS011;15806;53.548;9.964;2024-01-16T03:29:12;11.13;;;4.57;;
28613;SDS011;15806;53.548;9.964;2024-01-16T03:30:53;15.50;;;5.37;;
28613;SDS011;15806;53.548;9.964;2024-01-16T03:32:34;15.67;;;5.53;;
28613;SDS011;15806;53.548;9.964;2024-01-16T03:34:17;13.77;;;5.18;;
28613;SDS011;15806;53.548;9.964;2024-01-16T03:35:58;13.37;;;5.50;;
28613;SDS011;15806;53.548;9.964;2024-01-16T03:37:38;16.77;;;5.00;;
28613;SDS011;15806;53.548;9.964;2024-01-16T03:39:19;16.27;;;5.83;;
28613;SDS011;15806;53.548;9.964;2024-01-16T03:40:59;15.03;;;5.23;;
28613;SDS011;15806;53.548;9.964;2024-01-16T03:42:40;11.43;;;4.73;;
28613;SDS011;15806;53.548;9.964;2024-01-16T03:44:20;18.10;;;5.87;;
28613;SDS011;15806;53.548;9.964;2024-01-16T03:46:01;13.17;;;5.20;;
28613;SDS011;15806;53.548;9.964;2024-01-16T03:47:41;17.33;;;4.83;;
28613;SDS011;15806;53.548;9.964;2024-01-16T03:49:22;14.33;;;5.30;;
28613;SDS011;15806;53.548;9.964;2024-01-16T03:51:02;15.63;;;5.67;;
28613;SDS011;15806;53.548;9.964;2024-01-16T03:52:43;12.07;;;4.97;;
28613;SDS011;15806;53.548;9.964;2024-01-16T03:54:23;12.00;;;5.23;;
28613;SDS011;15806;53.548;9.964;2024-01-16T03:56:04;11.20;;;4.70;;
28613;SDS011;15806;53.548;9.964;2024-01-16T03:57:44;19.23;;;5.72;;
28613;SDS011;15806;53.548;9.964;2024-01-16T03:59:25;15.60;;;6.53;;
28613;SDS011;15806;53.548;9.964;2024-01-16T04:01:05;22.00;;;5.90;;
28613;SDS011;15806;53.548;9.964;2024-01-16T04:02:46;15.53;;;6.03;;
28613;SDS011;15806;53.548;9.964;2024-01-16T04:04:26;14.40;;;5.30;;
28613;SDS011;15806;53.548;9.964;2024-01-16T04:06:14;12.10;;;5.67;;
28613;SDS011;15806;53.548;9.964;2024-01-16T04:07:57;14.68;;;5.55;;
28613;SDS011;15806;53.548;9.964;2024-01-16T04:09:38;20.77;;;6.07;;
28613;SDS011;15806;53.548;9.964;2024-01-16T04:11:18;17.17;;;6.30;;
28613;SDS011;15806;53.548;9.964;2024-01-16T04:13:02;15.43;;;5.13;;
28613;SDS011;15806;53.548;9.964;2024-01-16T04:14:43;16.08;;;5.55;;
28613;SDS011;15806;53.548;9.964;2024-01-16T04:16:23;15.20;;;5.47;;
28613;SDS011;15806;53.548;9.964;2024-01-16T04:18:04;15.33;;;5.80;;
28613;SDS011;15806;53.548;9.964;2024-01-16T04:19:44;15.73;;;5.75;;
28613;SDS011;15806;53.548;9.964;2024-01-16T04:21:25;13.70;;;5.10;;
28613;SDS011;15806;53.548;9.964;2024-01-16T04:23:05;9.17;;;4.20;;
28613;SDS011;15806;53.548;9.964;2024-01-16T04:24:46;15.43;;;5.13;;
28613;SDS011;15806;53.548;9.964;2024-01-16T04:26:26;16.10;;;4.47;;
28613;SDS011;15806;53.548;9.964;2024-01-16T04:28:07;8.03;;;3.23;;
28613;SDS011;15806;53.548;9.964;2024-01-16T04:29:47;9.40;;;4.13;;
28613;SDS011;15806;53.548;9.964;2024-01-16T04:31:28;11.43;;;4.17;;
28613;SDS011;15806;53.548;9.964;2024-01-16T04:33:08;12.63;;;5.23;;
28613;SDS011;15806;53.548;9.964;2024-01-16T04:34:49;9.30;;;3.77;;
28613;SDS011;15806;53.548;9.964;2024-01-16T04:36:29;11.57;;;4.43;;
28613;SDS011;15806;53.548;9.964;2024-01-16T04:38:10;8.37;;;3.63;;
28613;SDS011;15806;53.548;9.964;2024-01-16T04:39:50;10.23;;;4.17;;
28613;SDS011;15806;53.548;9.964;2024-01-16T04:41:31;10.53;;;4.30;;
28613;SDS011;15806;53.548;9.964;2024-01-16T04:43:11;8.67;;;3.70;;
28613;SDS011;15806;53.548;9.964;2024-01-16T04:44:52;13.83;;;4.13;;
28613;SDS011;15806;53.548;9.964;2024-01-16T04:46:32;11.30;;;4.40;;
28613;SDS011;15806;53.548;9.964;2024-01-16T04:48:13;8.30;;;3.57;;
28613;SDS011;15806;53.548;9.964;2024-01-16T04:49:53;8.30;;;2.77;;
28613;SDS011;15806;53.548;9.964;2024-01-16T04:51:34;15.87;;;3.23;;
28613;SDS011;15806;53.548;9.964;2024-01-16T04:53:14;12.97;;;3.23;;
28613;SDS011;15806;53.548;9.964;2024-01-16T04:54:55;9.68;;;3.35;;
28613;SDS011;15806;53.548;9.964;2024-01-16T04:56:36;8.63;;;4.23;;
28613;SDS011;15806;53.548;9.964;2024-01-16T04:58:16;7.90;;;2.97;;
28613;SDS011;15806;53.548;9.964;2024-01-16T04:59:57;6.73;;;3.00;;
28613;SDS011;15806;53.548;9.964;2024-01-16T05:01:37;6.50;;;2.90;;
28613;SDS011;15806;53.548;9.964;2024-01-16T05:03:18;6.60;;;3.30;;
28613;SDS011;15806;53.548;9.964;2024-01-16T05:04:58;9.73;;;3.67;;
28613;SDS011;15806;53.548;9.964;2024-01-16T05:06:39;11.50;;;3.60;;
28613;SDS011;15806;53.548;9.964;2024-01-16T05:08:20;7.67;;;3.03;;
28613;SDS011;15806;53.548;9.964;2024-01-16T05:10:00;7.47;;;2.70;;
28613;SDS011;15806;53.548;9.964;2024-01-16T05:11:41;6.60;;;2.78;;
28613;SDS011;15806;53.548;9.964;2024-01-16T05:13:22;9.55;;;2.92;;
28613;SDS011;15806;53.548;9.964;2024-01-16T05:15:02;7.43;;;3.57;;
28613;SDS011;15806;53.548;9.964;2024-01-16T05:16:43;6.70;;;2.92;;
28613;SDS011;15806;53.548;9.964;2024-01-16T05:18:23;4.43;;;2.37;;
28613;SDS011;15806;53.548;9.964;2024-01-16T05:20:04;7.77;;;3.87;;
28613;SDS011;15806;53.548;9.964;2024-01-16T05:21:45;4.57;;;1.73;;
28613;SDS011;15806;53.548;9.964;2024-01-16T05:23:25;10.40;;;2.67;;
28613;SDS011;15806;53.548;9.964;2024-01-16T05:25:06;6.43;;;2.60;;
28613;SDS011;15806;53.548;9.964;2024-01-16T05:26:47;6.30;;;2.85;;
28613;SDS011;15806;53.548;9.964;2024-01-16T05:28:27;9.20;;;2.90;;
28613;SDS011;15806;53.548;9.964;2024-01-16T05:30:08;7.13;;;2.50;;
28613;SDS011;15806;53.548;9.964;2024-01-16T05:31:49;7.57;;;2.85;;
28613;SDS011;15806;53.548;9.964;2024-01-16T05:33:30;4.03;;;1.97;;
28613;SDS011;15806;53.548;9.964;2024-01-16T05:35:10;5.27;;;2.33;;
28613;SDS011;15806;53.548;9.964;2024-01-16T05:36:51;8.57;;;2.80;;
28613;SDS011;15806;53.548;9.964;2024-01-16T05:38:31;6.07;;;2.17;;
28613;SDS011;15806;53.548;9.964;2024-01-16T05:40:12;3.43;;;1.30;;
28613;SDS011;15806;53.548;9.964;2024-01-16T05:41:52;3.50;;;1.67;;
28613;SDS011;15806;53.548;9.964;2024-01-16T05:43:33;3.17;;;1.43;;
28613;SDS011;15806;53.548;9.964;2024-01-16T05:45:13;2.83;;;1.40;;
28613;SDS011;15806;53.548;9.964;2024-01-16T05:46:54;5.70;;;1.23;;
28613;SDS011;15806;53.548;9.964;2024-01-16T05:48:34;5.53;;;1.70;;
28613;SDS011;15806;53.548;9.964;2024-01-16T05:50:15;3.53;;;1.33;;
28613;SDS011;15806;53.548;9.964;2024-01-16T05:51:55;5.90;;;1.10;;
28613;SDS011;15806;53.548;9.964;2024-01-16T05:53:36;2.57;;;1.03;;
28613;SDS011;15806;53.548;9.964;2024-01-16T05:55:17;4.10;;;0.90;;
28613;SDS011;15806;53.548;9.964;2024-01-16T05:56:58;3.27;;;1.20;;
28613;SDS011;15806;53.548;9.964;2024-01-16T05:58:38;5.90;;;1.23;;
28613;SDS011;15806;53.548;9.964;2024-01-16T06:00:19;3.93;;;0.97;;
28613;SDS011;15806;53.548;9.964;2024-01-16T06:01:59;2.37;;;1.10;;
28613;SDS011;15806;53.548;9.964;2024-01-16T06:03:40;4.33;;;1.33;;
28613;SDS011;15806;53.548;9.964;2024-01-16T06:05:21;3.22;;;1.30;;
28613;SDS011;15806;53.548;9.964;2024-01-16T06:07:01;3.43;;;1.70;;
28613;SDS011;15806;53.548;9.964;2024-01-16T06:08:42;6.27;;;1.10;;
28613;SDS011;15806;53.548;9.964;2024-01-16T06:10:22;4.17;;;1.73;;
28613;SDS011;15806;53.548;9.964;2024-01-16T06:12:03;5.93;;;1.93;;
28613;SDS011;15806;53.548;9.964;2024-01-16T06:13:43;3.13;;;0.88;;
28613;SDS011;15806;53.548;9.964;2024-01-16T06:15:24;5.40;;;1.50;;
28613;SDS011;15806;53.548;9.964;2024-01-16T06:17:04;7.20;;;1.30;;
28613;SDS011;15806;53.548;9.964;2024-01-16T06:18:45;7.17;;;1.17;;
28613;SDS011;15806;53.548;9.964;2024-01-16T06:20:25;5.60;;;1.00;;
28613;SDS011;15806;53.548;9.964;2024-01-16T06:22:06;9.80;;;1.83;;
28613;SDS011;15806;53.548;9.964;2024-01-16T06:23:46;8.67;;;1.90;;
28613;SDS011;15806;53.548;9.964;2024-01-16T06:25:27;2.43;;;1.07;;
28613;SDS011;15806;53.548;9.964;2024-01-16T06:27:07;12.83;;;3.67;;
28613;SDS011;15806;53.548;9.964;2024-01-16T06:28:48;7.07;;;1.80;;
28613;SDS011;15806;53.548;9.964;2024-01-16T06:30:28;5.47;;;1.63;;
28613;SDS011;15806;53.548;9.964;2024-01-16T06:32:09;2.10;;;1.40;;
28613;SDS011;15806;53.548;9.964;2024-01-16T06:33:49;4.97;;;1.43;;
28613;SDS011;15806;53.548;9.964;2024-01-16T06:35:30;3.07;;;1.40;;
28613;SDS011;15806;53.548;9.964;2024-01-16T06:37:10;5.33;;;1.47;;
28613;SDS011;15806;53.548;9.964;2024-01-16T06:38:51;6.30;;;1.43;;
28613;SDS011;15806;53.548;9.964;2024-01-16T06:40:31;6.43;;;1.93;;
28613;SDS011;15806;53.548;9.964;2024-01-16T06:42:12;5.70;;;1.80;;
28613;SDS011;15806;53.548;9.964;2024-01-16T06:43:52;8.67;;;1.47;;
28613;SDS011;15806;53.548;9.964;2024-01-16T06:45:33;4.07;;;1.63;;
28613;SDS011;15806;53.548;9.964;2024-01-16T06:47:13;4.67;;;1.77;;
28613;SDS011;15806;53.548;9.964;2024-01-16T06:48:54;11.00;;;1.40;;
28613;SDS011;15806;53.548;9.964;2024-01-16T06:50:34;6.70;;;1.93;;
28613;SDS011;15806;53.548;9.964;2024-01-16T06:52:15;4.80;;;2.20;;
28613;SDS011;15806;53.548;9.964;2024-01-16T06:53:55;6.70;;;1.37;;
28613;SDS011;15806;53.548;9.964;2024-01-16T06:55:36;8.67;;;1.20;;
28613;SDS011;15806;53.548;9.964;2024-01-16T06:57:16;7.63;;;1.60;;
28613;SDS011;15806;53.548;9.964;2024-01-16T06:58:57;5.37;;;1.70;;
28613;SDS011;15806;53.548;9.964;2024-01-16T07:00:37;6.37;;;1.50;;
28613;SDS011;15806;53.548;9.964;2024-01-16T07:02:18;7.83;;;1.43;;
28613;SDS011;15806;53.548;9.964;2024-01-16T07:03:58;4.13;;;1.37;;
28613;SDS011;15806;53.548;9.964;2024-01-16T07:05:39;4.80;;;1.00;;
28613;SDS011;15806;53.548;9.964;2024-01-16T07:07:20;7.13;;;1.33;;
28613;SDS011;15806;53.548;9.964;2024-01-16T07:09:00;5.07;;;1.10;;
28613;SDS011;15806;53.548;9.964;2024-01-16T07:10:41;5.53;;;1.90;;
28613;SDS011;15806;53.548;9.964;2024-01-16T07:12:21;10.97;;;1.70;;
28613;SDS011;15806;53.548;9.964;2024-01-16T07:14:02;5.40;;;1.70;;
28613;SDS011;15806;53.548;9.964;2024-01-16T07:15:42;6.53;;;0.97;;
28613;SDS011;15806;53.548;9.964;2024-01-16T07:17:23;1.67;;;1.13;;
28613;SDS011;15806;53.548;9.964;2024-01-16T07:19:03;4.57;;;1.63;;
28613;SDS011;15806;53.548;9.964;2024-01-16T07:20:44;5.97;;;1.95;;
28613;SDS011;15806;53.548;9.964;2024-01-16T07:22:24;8.13;;;1.83;;
28613;SDS011;15806;53.548;9.964;2024-01-16T07:24:05;5.47;;;1.57;;
28613;SDS011;15806;53.548;9.964;2024-01-16T07:25:46;10.50;;;1.60;;
28613;SDS011;15806;53.548;9.964;2024-01-16T07:27:26;3.93;;;1.40;;
28613;SDS011;15806;53.548;9.964;2024-01-16T07:29:07;7.07;;;2.07;;
28613;SDS011;15806;53.548;9.964;2024-01-16T07:30:47;5.10;;;1.43;;
28613;SDS011;15806;53.548;9.964;2024-01-16T07:32:28;5.27;;;2.30;;
28613;SDS011;15806;53.548;9.964;2024-01-16T07:34:08;7.67;;;1.90;;
28613;SDS011;15806;53.548;9.964;2024-01-16T07:35:49;6.00;;;2.00;;
28613;SDS011;15806;53.548;9.964;2024-01-16T07:37:29;4.20;;;1.20;;
28613;SDS011;15806;53.548;9.964;2024-01-16T07:39:10;8.73;;;1.73;;
28613;SDS011;15806;53.548;9.964;2024-01-16T07:40:50;3.50;;;1.63;;
28613;SDS011;15806;53.548;9.964;2024-01-16T07:42:31;2.73;;;1.77;;
28613;SDS011;15806;53.548;9.964;2024-01-16T07:44:12;16.35;;;4.07;;
28613;SDS011;15806;53.548;9.964;2024-01-16T07:45:52;10.43;;;2.83;;
28613;SDS011;15806;53.548;9.964;2024-01-16T07:47:33;10.30;;;2.37;;
28613;SDS011;15806;53.548;9.964;2024-01-16T07:49:13;7.10;;;1.93;;
28613;SDS011;15806;53.548;9.964;2024-01-16T07:50:54;4.87;;;1.87;;
28613;SDS011;15806;53.548;9.964;2024-01-16T07:52:35;7.40;;;2.05;;
28613;SDS011;15806;53.548;9.964;2024-01-16T07:54:15;10.60;;;3.50;;
28613;SDS011;15806;53.548;9.964;2024-01-16T07:55:56;8.93;;;2.93;;
28613;SDS011;15806;53.548;9.964;2024-01-16T07:57:36;12.10;;;2.90;;
28613;SDS011;15806;53.548;9.964;2024-01-16T07:59:17;9.57;;;2.87;;
28613;SDS011;15806;53.548;9.964;2024-01-16T08:00:57;6.70;;;3.08;;
28613;SDS011;15806;53.548;9.964;2024-01-16T08:02:38;6.40;;;2.63;;
28613;SDS011;15806;53.548;9.964;2024-01-16T08:04:19;8.45;;;2.80;;
28613;SDS011;15806;53.548;9.964;2024-01-16T08:05:59;6.67;;;2.60;;
28613;SDS011;15806;53.548;9.964;2024-01-16T08:07:42;5.17;;;2.13;;
28613;SDS011;15806;53.548;9.964;2024-01-16T08:09:22;14.23;;;2.75;;
28613;SDS011;15806;53.548;9.964;2024-01-16T08:11:03;4.07;;;2.50;;
28613;SDS011;15806;53.548;9.964;2024-01-16T08:12:43;6.53;;;2.83;;
28613;SDS011;15806;53.548;9.964;2024-01-16T08:14:24;8.63;;;2.50;;
28613;SDS011;15806;53.548;9.964;2024-01-16T08:16:04;9.77;;;2.47;;
28613;SDS011;15806;53.548;9.964;2024-01-16T08:17:45;4.28;;;2.40;;
28613;SDS011;15806;53.548;9.964;2024-01-16T08:19:26;8.07;;;3.67;;
28613;SDS011;15806;53.548;9.964;2024-01-16T08:21:06;7.53;;;2.60;;
28613;SDS011;15806;53.548;9.964;2024-01-16T08:22:47;4.30;;;2.03;;
28613;SDS011;15806;53.548;9.964;2024-01-16T08:24:27;11.03;;;3.03;;
28613;SDS011;15806;53.548;9.964;2024-01-16T08:26:08;5.75;;;1.98;;
28613;SDS011;15806;53.548;9.964;2024-01-16T08:29:30;7.53;;;2.70;;
28613;SDS011;15806;53.548;9.964;2024-01-16T08:31:11;4.30;;;2.23;;
28613;SDS011;15806;53.548;9.964;2024-01-16T08:32:51;5.20;;;2.30;;
28613;SDS011;15806;53.548;9.964;2024-01-16T08:34:32;9.83;;;3.57;;
28613;SDS011;15806;53.548;9.964;2024-01-16T08:36:12;9.97;;;2.70;;
28613;SDS011;15806;53.548;9.964;2024-01-16T08:39:34;4.37;;;2.07;;
28613;SDS011;15806;53.548;9.964;2024-01-16T08:41:15;5.30;;;2.50;;
28613;SDS011;15806;53.548;9.964;2024-01-16T08:42:55;14.23;;;2.83;;
28613;SDS011;15806;53.548;9.964;2024-01-16T08:44:36;5.38;;;2.95;;
28613;SDS011;15806;53.548;9.964;2024-01-16T08:46:16;12.43;;;2.83;;
28613;SDS011;15806;53.548;9.964;2024-01-16T08:47:57;6.67;;;2.50;;
28613;SDS011;15806;53.548;9.964;2024-01-16T08:49:37;5.27;;;2.83;;
28613;SDS011;15806;53.548;9.964;2024-01-16T08:51:18;9.33;;;2.70;;
28613;SDS011;15806;53.548;9.964;2024-01-16T08:52:58;10.63;;;2.40;;
28613;SDS011;15806;53.548;9.964;2024-01-16T08:54:39;6.87;;;3.30;;
28613;SDS011;15806;53.548;9.964;2024-01-16T08:56:19;14.90;;;2.97;;
28613;SDS011;15806;53.548;9.964;2024-01-16T08:58:00;8.67;;;3.17;;
28613;SDS011;15806;53.548;9.964;2024-01-16T08:59:41;6.03;;;2.17;;
28613;SDS011;15806;53.548;9.964;2024-01-16T09:01:21;16.10;;;4.75;;
28613;SDS011;15806;53.548;9.964;2024-01-16T09:03:02;14.57;;;3.00;;
28613;SDS011;15806;53.548;9.964;2024-01-16T09:06:24;9.97;;;3.13;;
28613;SDS011;15806;53.548;9.964;2024-01-16T09:08:04;18.17;;;4.10;;
28613;SDS011;15806;53.548;9.964;2024-01-16T09:09:45;10.43;;;3.10;;
28613;SDS011;15806;53.548;9.964;2024-01-16T09:11:26;7.93;;;2.03;;
28613;SDS011;15806;53.548;9.964;2024-01-16T09:13:06;7.57;;;3.47;;
28613;SDS011;15806;53.548;9.964;2024-01-16T09:14:46;7.90;;;2.80;;
28613;SDS011;15806;53.548;9.964;2024-01-16T09:16:27;9.03;;;2.83;;
28613;SDS011;15806;53.548;9.964;2024-01-16T09:18:07;12.17;;;3.90;;
28613;SDS011;15806;53.548;9.964;2024-01-16T09:19:48;10.53;;;3.07;;
28613;SDS011;15806;53.548;9.964;2024-01-16T09:21:28;13.37;;;3.33;;
28613;SDS011;15806;53.548;9.964;2024-01-16T09:23:09;6.30;;;1.60;;
28613;SDS011;15806;53.548;9.964;2024-01-16T09:24:49;6.93;;;2.53;;
28613;SDS011;15806;53.548;9.964;2024-01-16T09:26:30;8.80;;;1.97;;
28613;SDS011;15806;53.548;9.964;2024-01-16T09:28:11;7.03;;;2.20;;
28613;SDS011;15806;53.548;9.964;2024-01-16T09:29:51;9.17;;;3.10;;
28613;SDS011;15806;53.548;9.964;2024-01-16T09:31:31;6.67;;;2.90;;
28613;SDS011;15806;53.548;9.964;2024-01-16T09:33:12;7.17;;;2.43;;
28613;SDS011;15806;53.548;9.964;2024-01-16T09:34:53;8.10;;;2.43;;
28613;SDS011;15806;53.548;9.964;2024-01-16T09:36:33;7.77;;;2.90;;
28613;SDS011;15806;53.548;9.964;2024-01-16T09:38:14;10.37;;;2.50;;
28613;SDS011;15806;53.548;9.964;2024-01-16T09:39:54;6.37;;;2.03;;
28613;SDS011;15806;53.548;9.964;2024-01-16T09:41:35;7.13;;;3.00;;
28613;SDS011;15806;53.548;9.964;2024-01-16T09:43:15;4.63;;;2.07;;
28613;SDS011;15806;53.548;9.964;2024-01-16T09:44:56;6.27;;;2.13;;
28613;SDS011;15806;53.548;9.964;2024-01-16T09:46:37;6.13;;;2.03;;
28613;SDS011;15806;53.548;9.964;2024-01-16T09:48:19;8.82;;;1.75;;
28613;SDS011;15806;53.548;9.964;2024-01-16T09:50:00;9.88;;;2.00;;
28613;SDS011;15806;53.548;9.964;2024-01-16T09:51:42;5.18;;;1.50;;
28613;SDS011;15806;53.548;9.964;2024-01-16T09:53:23;6.85;;;1.58;;
28613;SDS011;15806;53.548;9.964;2024-01-16T09:55:04;12.32;;;3.05;;
28613;SDS011;15806;53.548;9.964;2024-01-16T09:56:45;5.30;;;1.42;;
28613;SDS011;15806;53.548;9.964;2024-01-16T09:58:28;11.50;;;1.98;;
28613;SDS011;15806;53.548;9.964;2024-01-16T10:00:13;6.32;;;1.63;;
28613;SDS011;15806;53.548;9.964;2024-01-16T10:01:56;4.78;;;1.42;;
28613;SDS011;15806;53.548;9.964;2024-01-16T10:03:36;9.67;;;1.60;;
28613;SDS011;15806;53.548;9.964;2024-01-16T10:05:18;8.57;;;1.48;;
28613;SDS011;15806;53.548;9.964;2024-01-16T10:06:59;2.90;;;1.10;;
28613;SDS011;15806;53.548;9.964;2024-01-16T10:08:42;4.80;;;1.20;;
28613;SDS011;15806;53.548;9.964;2024-01-16T10:10:22;2.63;;;1.20;;
28613;SDS011;15806;53.548;9.964;2024-01-16T10:12:03;2.87;;;1.03;;